createdAt,value
2023-05-31T00:01:36.045Z,12.80
2023-05-31T00:04:03.633Z,12.70
2023-05-31T00:06:30.996Z,12.70
2023-05-31T00:08:58.018Z,12.70
2023-05-31T00:11:27.469Z,12.70
2023-05-31T00:13:54.770Z,12.60
2023-05-31T00:16:52.309Z,12.60
2023-05-31T00:19:08.897Z,12.40
2023-05-31T00:21:36.478Z,12.30
2023-05-31T00:24:03.554Z,12.30
2023-05-31T00:26:30.655Z,12.30
2023-05-31T00:28:57.491Z,12.20
2023-05-31T00:31:24.622Z,12.20
2023-05-31T00:33:51.626Z,12.20
2023-05-31T00:36:18.507Z,12.20
2023-05-31T00:38:45.369Z,12.10
2023-05-31T00:41:12.561Z,12.10
2023-05-31T00:43:39.426Z,12.10
2023-05-31T00:46:07.537Z,11.90
2023-05-31T00:48:34.648Z,12.00
2023-05-31T00:51:02.484Z,11.90
2023-05-31T00:53:29.626Z,11.90
2023-05-31T00:55:56.576Z,11.80
2023-05-31T00:58:25.307Z,11.80
2023-05-31T01:00:52.230Z,11.80
2023-05-31T01:03:20.680Z,11.80
2023-05-31T01:05:48.074Z,11.80
2023-05-31T01:08:15.699Z,11.80
2023-05-31T01:10:42.821Z,11.80
2023-05-31T01:13:23.611Z,11.80
2023-05-31T01:16:12.223Z,11.90
2023-05-31T01:18:55.442Z,11.80
2023-05-31T01:21:52.440Z,11.70
2023-05-31T01:24:38.098Z,11.80
2023-05-31T01:27:06.297Z,11.70
2023-05-31T01:29:35.344Z,11.70
2023-05-31T01:32:04.020Z,11.70
2023-05-31T01:34:30.945Z,11.70
2023-05-31T01:36:57.801Z,11.70
2023-05-31T01:39:24.649Z,11.50
2023-05-31T01:41:52.759Z,11.40
2023-05-31T01:44:20.844Z,11.50
2023-05-31T01:46:49.439Z,11.40
2023-05-31T01:49:16.312Z,11.40
2023-05-31T01:51:46.149Z,11.40
2023-05-31T01:54:12.992Z,11.40
2023-05-31T01:56:41.325Z,11.40
2023-05-31T01:59:08.883Z,11.40
2023-05-31T02:01:37.469Z,11.40
2023-05-31T02:04:04.696Z,11.30
2023-05-31T02:06:32.846Z,11.30
2023-05-31T02:09:00.242Z,11.30
2023-05-31T02:11:27.881Z,11.30
2023-05-31T02:13:54.808Z,11.30
2023-05-31T02:16:21.798Z,11.30
2023-05-31T02:18:48.722Z,11.30
2023-05-31T02:21:15.674Z,11.20
2023-05-31T02:23:42.947Z,11.20
2023-05-31T02:26:09.922Z,11.10
2023-05-31T02:28:36.768Z,11.10
2023-05-31T02:31:04.123Z,11.00
2023-05-31T02:33:31.859Z,10.90
2023-05-31T02:35:59.843Z,10.90
2023-05-31T02:38:27.058Z,10.90
2023-05-31T02:40:53.983Z,10.90
2023-05-31T02:43:20.898Z,10.90
2023-05-31T02:45:47.843Z,10.80
2023-05-31T02:48:14.799Z,10.90
2023-05-31T02:50:42.071Z,10.80
2023-05-31T02:53:08.933Z,10.80
2023-05-31T02:55:38.588Z,10.70
2023-05-31T02:58:05.685Z,10.70
2023-05-31T03:00:32.557Z,10.70
2023-05-31T03:02:59.828Z,10.70
2023-05-31T03:05:27.322Z,10.70
2023-05-31T03:07:54.248Z,10.70
2023-05-31T03:10:21.201Z,10.50
2023-05-31T03:12:48.391Z,10.50
2023-05-31T03:15:15.509Z,10.50
2023-05-31T03:17:42.452Z,10.50
2023-05-31T03:20:09.907Z,10.50
2023-05-31T03:22:38.030Z,10.50
2023-05-31T03:25:06.140Z,10.50
2023-05-31T03:27:33.295Z,10.50
2023-05-31T03:30:01.482Z,10.50
2023-05-31T03:32:28.604Z,10.20
2023-05-31T03:34:55.767Z,10.30
2023-05-31T03:37:22.722Z,10.20
2023-05-31T03:39:49.837Z,10.30
2023-05-31T03:42:17.084Z,10.30
2023-05-31T03:44:44.775Z,10.20
2023-05-31T03:47:12.185Z,10.30
2023-05-31T03:49:39.066Z,10.40
2023-05-31T03:52:06.586Z,10.40
2023-05-31T03:54:33.418Z,10.40
2023-05-31T03:57:00.432Z,10.40
2023-05-31T03:59:27.310Z,10.40
2023-05-31T04:01:54.193Z,10.40
2023-05-31T04:04:21.653Z,10.40
2023-05-31T04:06:48.634Z,10.40
2023-05-31T04:09:15.520Z,10.40
2023-05-31T04:11:42.381Z,10.50
2023-05-31T04:14:09.388Z,10.50
2023-05-31T04:16:36.473Z,10.50
2023-05-31T04:19:03.778Z,10.50
2023-05-31T04:21:32.582Z,10.60
2023-05-31T04:24:00.133Z,10.60
2023-05-31T04:26:27.494Z,10.60
2023-05-31T04:28:54.997Z,10.50
2023-05-31T04:31:35.262Z,10.50
2023-05-31T04:34:10.013Z,10.60
2023-05-31T04:36:38.036Z,10.70
2023-05-31T04:39:10.286Z,10.80
2023-05-31T04:41:37.453Z,10.80
2023-05-31T04:44:04.265Z,10.90
2023-05-31T04:46:31.292Z,11.00
2023-05-31T04:48:58.504Z,11.20
2023-05-31T04:51:25.385Z,12.00
2023-05-31T04:53:52.262Z,13.30
2023-05-31T04:56:19.698Z,15.50
2023-05-31T04:58:47.188Z,18.20
2023-05-31T05:01:15.783Z,18.70
2023-05-31T05:03:43.124Z,19.90
2023-05-31T05:06:17.771Z,21.00
2023-05-31T05:08:45.154Z,22.00
2023-05-31T05:11:12.597Z,22.80
2023-05-31T05:13:39.937Z,22.80
2023-05-31T05:16:07.087Z,23.40
2023-05-31T05:18:33.898Z,24.00
2023-05-31T05:21:01.086Z,24.10
2023-05-31T05:23:28.165Z,24.00
2023-05-31T05:25:55.138Z,23.00
2023-05-31T05:28:23.413Z,21.80
2023-05-31T05:30:51.799Z,20.80
2023-05-31T05:33:18.829Z,20.00
2023-05-31T05:35:45.844Z,19.40
2023-05-31T05:38:12.732Z,18.80
2023-05-31T05:40:39.547Z,18.40
2023-05-31T05:43:07.038Z,18.10
2023-05-31T05:45:33.907Z,17.90
2023-05-31T05:48:00.813Z,17.60
2023-05-31T05:50:27.670Z,17.30
2023-05-31T05:52:54.576Z,17.10
2023-05-31T05:55:21.770Z,16.80
2023-05-31T05:57:48.642Z,16.60
2023-05-31T06:00:16.823Z,16.50
2023-05-31T06:02:43.862Z,16.40
2023-05-31T06:05:10.898Z,16.30
2023-05-31T06:07:38.036Z,16.20
2023-05-31T06:10:05.497Z,16.20
2023-05-31T06:12:34.090Z,16.00
2023-05-31T06:15:01.046Z,16.20
2023-05-31T06:17:27.929Z,16.20
2023-05-31T06:19:54.827Z,16.20
2023-05-31T06:22:21.762Z,16.10
2023-05-31T06:24:48.682Z,16.10
2023-05-31T06:27:15.925Z,16.30
2023-05-31T06:29:42.864Z,16.20
2023-05-31T06:32:10.016Z,16.30
2023-05-31T06:34:37.394Z,16.40
2023-05-31T06:37:05.146Z,16.60
2023-05-31T06:39:32.063Z,16.50
2023-05-31T06:42:00.698Z,16.60
2023-05-31T06:44:27.917Z,16.60
2023-05-31T06:46:54.989Z,16.70
2023-05-31T06:49:21.834Z,16.80
2023-05-31T06:51:48.749Z,17.00
2023-05-31T06:54:16.290Z,17.10
2023-05-31T06:56:43.216Z,17.20
2023-05-31T06:59:10.108Z,17.20
2023-05-31T07:01:37.011Z,17.30
2023-05-31T07:04:04.009Z,17.40
2023-05-31T07:06:31.076Z,17.40
2023-05-31T07:08:57.971Z,17.50
2023-05-31T07:11:25.898Z,17.50
2023-05-31T07:13:52.792Z,17.40
2023-05-31T07:16:19.687Z,17.40
2023-05-31T07:18:47.843Z,17.60
2023-05-31T07:21:14.708Z,17.60
2023-05-31T07:23:41.482Z,17.70
2023-05-31T07:26:08.308Z,17.90
2023-05-31T07:28:35.195Z,18.10
2023-05-31T07:31:02.783Z,18.10
2023-05-31T07:33:30.447Z,18.10
2023-05-31T07:36:01.463Z,18.20
2023-05-31T07:38:28.908Z,18.30
2023-05-31T07:40:55.823Z,18.30
2023-05-31T07:43:27.550Z,18.30
2023-05-31T07:45:57.972Z,18.50
2023-05-31T07:48:25.422Z,18.50
2023-05-31T07:50:52.680Z,18.50
2023-05-31T07:53:19.571Z,18.50
2023-05-31T07:55:46.803Z,18.50
2023-05-31T07:58:13.666Z,18.50
2023-05-31T08:00:41.024Z,18.60
2023-05-31T08:03:08.042Z,18.50
2023-05-31T08:05:35.043Z,18.50
2023-05-31T08:08:01.893Z,18.70
2023-05-31T08:10:28.835Z,19.00
2023-05-31T08:12:55.958Z,19.00
2023-05-31T08:15:23.064Z,19.00
2023-05-31T08:17:50.007Z,19.10
2023-05-31T08:20:18.110Z,19.20
2023-05-31T08:22:45.945Z,19.20
2023-05-31T08:25:15.079Z,19.40
2023-05-31T08:27:42.257Z,19.40
2023-05-31T08:30:11.213Z,19.50
2023-05-31T08:32:39.938Z,19.60
2023-05-31T08:35:07.457Z,19.70
2023-05-31T08:37:37.855Z,19.90
2023-05-31T08:40:08.300Z,19.90
2023-05-31T08:43:05.869Z,20.00
2023-05-31T08:45:38.177Z,20.00
2023-05-31T08:48:20.273Z,20.00
2023-05-31T08:50:48.574Z,20.10
2023-05-31T08:53:17.653Z,20.00
2023-05-31T08:55:47.319Z,20.10
2023-05-31T08:58:15.217Z,20.20
2023-05-31T09:00:42.631Z,20.30
2023-05-31T09:03:11.295Z,20.20
2023-05-31T09:05:38.342Z,20.40
2023-05-31T09:08:05.511Z,20.40
2023-05-31T09:10:32.604Z,20.40
2023-05-31T09:12:59.530Z,20.60
2023-05-31T09:15:28.904Z,20.60
2023-05-31T09:17:58.170Z,20.70
2023-05-31T09:20:35.635Z,20.80
2023-05-31T09:23:06.991Z,20.90
2023-05-31T09:25:53.666Z,20.80
2023-05-31T09:28:22.813Z,20.90
2023-05-31T09:31:05.948Z,21.00
2023-05-31T09:33:41.507Z,21.00
2023-05-31T09:36:09.273Z,21.00
2023-05-31T09:38:37.507Z,21.00
2023-05-31T09:41:18.793Z,21.10
2023-05-31T09:43:50.589Z,21.00
2023-05-31T09:46:23.668Z,21.20
2023-05-31T09:49:07.155Z,21.40
2023-05-31T09:51:35.248Z,21.40
2023-05-31T09:54:08.620Z,21.40
2023-05-31T09:56:41.489Z,21.40
2023-05-31T09:59:09.225Z,21.50
2023-05-31T10:01:37.798Z,21.60
2023-05-31T10:04:06.020Z,21.70
2023-05-31T10:06:37.524Z,21.50
2023-05-31T10:09:08.637Z,21.70
2023-05-31T10:11:37.929Z,21.70
2023-05-31T10:14:13.958Z,21.60
2023-05-31T10:16:51.188Z,21.80
2023-05-31T10:19:25.496Z,22.00
2023-05-31T10:21:54.958Z,21.90
2023-05-31T10:24:27.446Z,22.20
2023-05-31T10:27:06.451Z,22.10
2023-05-31T10:29:38.716Z,22.20
2023-05-31T10:32:18.734Z,22.30
2023-05-31T10:34:47.313Z,22.40
2023-05-31T10:37:14.849Z,22.40
2023-05-31T10:39:47.880Z,22.50
2023-05-31T10:42:41.729Z,22.80
2023-05-31T10:45:31.504Z,22.70
2023-05-31T10:48:14.611Z,22.80
2023-05-31T10:50:58.910Z,22.90
2023-05-31T10:53:31.970Z,23.00
2023-05-31T10:56:11.079Z,23.00
2023-05-31T10:58:49.041Z,22.80
2023-05-31T11:01:25.451Z,23.10
2023-05-31T11:03:53.980Z,23.00
2023-05-31T11:06:31.831Z,23.10
2023-05-31T11:09:13.392Z,23.30
2023-05-31T11:11:41.760Z,23.40
2023-05-31T11:14:30.770Z,23.70
2023-05-31T11:17:05.094Z,23.80
2023-05-31T11:19:35.190Z,23.90
2023-05-31T11:22:20.041Z,24.00
2023-05-31T11:24:52.732Z,24.00
2023-05-31T11:27:34.788Z,23.90
2023-05-31T11:30:02.201Z,23.90
2023-05-31T11:32:34.937Z,24.10
2023-05-31T11:35:12.201Z,24.00
2023-05-31T11:37:40.147Z,24.10
2023-05-31T11:40:13.461Z,24.10
2023-05-31T11:42:43.552Z,24.20
2023-05-31T11:45:14.102Z,24.10
2023-05-31T11:48:21.927Z,24.20
2023-05-31T11:50:48.794Z,24.10
2023-05-31T11:53:16.006Z,24.30
2023-05-31T11:55:49.819Z,24.20
2023-05-31T11:58:21.050Z,24.30
2023-05-31T12:00:48.116Z,24.40
2023-05-31T12:03:18.088Z,24.50
2023-05-31T12:05:52.361Z,24.60
2023-05-31T12:08:19.522Z,24.70
2023-05-31T12:10:46.840Z,24.20
2023-05-31T12:13:17.816Z,24.50
2023-05-31T12:15:54.719Z,24.70
2023-05-31T12:18:23.318Z,24.80
2023-05-31T12:20:50.954Z,24.60
2023-05-31T12:23:19.919Z,24.40
2023-05-31T12:25:51.761Z,24.70
2023-05-31T12:28:20.678Z,24.90
2023-05-31T12:30:49.690Z,24.90
2023-05-31T12:33:17.331Z,25.10
2023-05-31T12:35:46.916Z,25.20
2023-05-31T12:38:14.363Z,25.30
2023-05-31T12:40:45.880Z,25.40
2023-05-31T12:43:15.746Z,25.30
2023-05-31T12:45:43.886Z,25.30
2023-05-31T12:48:12.371Z,25.20
2023-05-31T12:50:48.545Z,25.40
2023-05-31T12:53:16.238Z,25.40
2023-05-31T12:55:43.967Z,25.40
2023-05-31T12:58:11.459Z,25.60
2023-05-31T13:00:38.676Z,25.50
2023-05-31T13:03:07.836Z,25.30
2023-05-31T13:05:34.844Z,25.50
2023-05-31T13:08:01.665Z,25.50
2023-05-31T13:10:28.727Z,25.50
2023-05-31T13:12:55.730Z,25.40
2023-05-31T13:15:23.280Z,25.00
2023-05-31T13:17:50.208Z,25.40
2023-05-31T13:20:17.394Z,25.40
2023-05-31T13:22:44.385Z,25.40
2023-05-31T13:25:11.365Z,25.40
2023-05-31T13:27:40.739Z,25.60
2023-05-31T13:30:09.424Z,25.70
2023-05-31T13:32:36.640Z,25.90
2023-05-31T13:35:05.383Z,25.90
2023-05-31T13:37:32.425Z,25.70
2023-05-31T13:39:59.301Z,26.00
2023-05-31T13:42:26.351Z,25.80
2023-05-31T13:44:53.143Z,25.80
2023-05-31T13:47:19.984Z,25.70
2023-05-31T13:49:47.039Z,25.70
2023-05-31T13:52:15.271Z,25.90
2023-05-31T13:54:42.975Z,25.70
2023-05-31T13:57:10.298Z,26.00
2023-05-31T13:59:37.234Z,26.10
2023-05-31T14:02:04.286Z,25.90
2023-05-31T14:04:31.226Z,25.90
2023-05-31T14:06:58.530Z,25.90
2023-05-31T14:09:25.853Z,26.10
2023-05-31T14:11:53.017Z,25.80
2023-05-31T14:14:20.049Z,25.80
2023-05-31T14:16:47.142Z,25.70
2023-05-31T14:19:14.214Z,25.90
2023-05-31T14:21:43.600Z,26.00
2023-05-31T14:24:11.016Z,26.00
2023-05-31T14:26:37.943Z,26.20
2023-05-31T14:29:05.210Z,26.20
2023-05-31T14:31:32.189Z,26.00
2023-05-31T14:33:59.169Z,26.10
2023-05-31T14:36:26.541Z,26.10
2023-05-31T14:38:53.882Z,26.20
2023-05-31T14:41:21.367Z,26.30
2023-05-31T14:43:48.759Z,26.00
2023-05-31T14:46:15.894Z,26.10
2023-05-31T14:48:42.952Z,26.10
2023-05-31T14:51:09.794Z,26.20
2023-05-31T14:53:36.845Z,26.30
2023-05-31T14:58:34.388Z,26.50
2023-05-31T15:01:01.734Z,26.60
2023-05-31T15:03:28.993Z,26.40
2023-05-31T15:05:55.946Z,26.40
2023-05-31T15:08:24.084Z,26.30
2023-05-31T15:10:54.530Z,26.30
2023-05-31T15:13:21.493Z,26.10
2023-05-31T15:15:48.301Z,25.90
2023-05-31T15:18:15.574Z,26.30
2023-05-31T15:20:42.443Z,26.40
2023-05-31T15:23:09.432Z,26.30
2023-05-31T15:25:36.324Z,26.60
2023-05-31T15:28:03.809Z,26.70
2023-05-31T15:30:31.233Z,26.80
2023-05-31T15:32:58.620Z,26.90
2023-05-31T15:35:26.378Z,26.90
2023-05-31T15:37:53.363Z,26.80
2023-05-31T15:40:20.392Z,27.00
2023-05-31T15:42:47.288Z,26.90
2023-05-31T15:45:14.223Z,27.10
2023-05-31T15:47:41.296Z,27.10
2023-05-31T15:50:08.573Z,27.00
2023-05-31T15:52:35.547Z,26.90
2023-05-31T15:55:03.123Z,26.80
2023-05-31T15:57:30.082Z,27.00
2023-05-31T15:59:56.887Z,27.00
2023-05-31T16:02:24.454Z,27.00
2023-05-31T16:04:51.270Z,26.90
2023-05-31T16:07:18.153Z,26.80
2023-05-31T16:09:45.034Z,26.70
2023-05-31T16:12:11.901Z,27.00
2023-05-31T16:14:38.739Z,27.00
2023-05-31T16:17:06.093Z,27.00
2023-05-31T16:19:33.032Z,27.20
2023-05-31T16:21:59.912Z,27.30
2023-05-31T16:24:26.813Z,26.70
2023-05-31T16:26:54.041Z,26.60
2023-05-31T16:29:20.928Z,26.20
2023-05-31T16:31:48.119Z,26.10
2023-05-31T16:34:15.150Z,26.00
2023-05-31T16:36:42.123Z,26.00
2023-05-31T16:39:09.124Z,25.80
2023-05-31T16:41:36.195Z,25.60
2023-05-31T16:44:03.318Z,25.40
2023-05-31T16:46:31.000Z,25.40
2023-05-31T16:48:59.172Z,25.10
2023-05-31T16:51:26.582Z,24.80
2023-05-31T16:53:53.935Z,24.90
2023-05-31T16:56:21.304Z,24.60
2023-05-31T16:58:48.108Z,24.60
2023-05-31T17:01:15.343Z,24.50
2023-05-31T17:03:42.536Z,24.40
2023-05-31T17:06:09.450Z,24.40
2023-05-31T17:08:36.367Z,24.30
2023-05-31T17:11:04.435Z,24.20
2023-05-31T17:13:31.290Z,24.10
2023-05-31T17:15:58.202Z,24.10
2023-05-31T17:18:25.058Z,23.90
2023-05-31T17:20:53.162Z,23.90
2023-05-31T17:23:20.084Z,23.80
2023-05-31T17:25:47.119Z,23.80
2023-05-31T17:28:14.085Z,23.60
2023-05-31T17:30:41.104Z,23.60
2023-05-31T17:33:08.365Z,23.50
2023-05-31T17:35:35.316Z,23.50
2023-05-31T17:38:02.155Z,23.60
2023-05-31T17:40:28.987Z,23.40
2023-05-31T17:42:55.829Z,23.20
2023-05-31T17:45:22.715Z,23.20
2023-05-31T17:47:49.962Z,23.30
2023-05-31T17:50:18.312Z,23.10
2023-05-31T17:52:46.445Z,23.10
2023-05-31T17:55:13.326Z,23.00
2023-05-31T17:57:41.545Z,23.00
2023-05-31T18:00:09.257Z,23.00
2023-05-31T18:02:37.154Z,22.90
2023-05-31T18:05:04.677Z,22.80
2023-05-31T18:07:32.584Z,22.80
2023-05-31T18:09:59.415Z,22.80
2023-05-31T18:12:26.257Z,22.80
2023-05-31T18:14:53.341Z,22.70
2023-05-31T18:17:22.260Z,22.70
2023-05-31T18:19:49.213Z,22.50
2023-05-31T18:22:16.248Z,22.50
2023-05-31T18:24:43.117Z,22.40
2023-05-31T18:27:20.953Z,22.50
2023-05-31T18:29:49.537Z,22.40
2023-05-31T18:32:20.324Z,22.40
2023-05-31T18:34:47.329Z,22.30
2023-05-31T18:37:15.669Z,22.20
2023-05-31T18:39:45.753Z,22.20
2023-05-31T18:42:12.687Z,22.10
2023-05-31T18:44:39.559Z,22.00
2023-05-31T18:47:08.000Z,22.00
2023-05-31T18:49:35.566Z,21.90
2023-05-31T18:52:02.518Z,21.80
2023-05-31T18:54:29.538Z,21.80
2023-05-31T18:57:02.254Z,21.70
2023-05-31T18:59:30.520Z,21.60
2023-05-31T19:01:59.066Z,21.50
2023-05-31T19:04:25.889Z,21.40
2023-05-31T19:06:53.724Z,21.40
2023-05-31T19:09:20.598Z,21.30
2023-05-31T19:11:48.891Z,21.20
2023-05-31T19:14:20.015Z,21.10
2023-05-31T19:16:47.382Z,21.00
2023-05-31T19:19:15.670Z,20.90
2023-05-31T19:21:42.589Z,20.80
2023-05-31T19:24:09.485Z,20.80
2023-05-31T19:26:36.382Z,20.60
2023-05-31T19:29:04.015Z,20.50
2023-05-31T19:31:31.362Z,20.50
2023-05-31T19:33:58.663Z,20.40
2023-05-31T19:36:28.788Z,20.30
2023-05-31T19:38:55.610Z,20.20
2023-05-31T19:41:22.914Z,20.10
2023-05-31T19:43:49.818Z,20.00
2023-05-31T19:46:24.970Z,19.90
2023-05-31T19:48:52.991Z,19.70
2023-05-31T19:51:20.472Z,19.60
2023-05-31T19:53:47.353Z,19.60
2023-05-31T19:56:15.052Z,19.50
2023-05-31T19:58:41.915Z,19.40
2023-05-31T20:01:09.356Z,19.40
2023-05-31T20:03:36.440Z,19.40
2023-05-31T20:06:04.308Z,19.30
2023-05-31T20:08:31.403Z,19.10
2023-05-31T20:11:00.008Z,19.00
2023-05-31T20:13:26.897Z,18.90
2023-05-31T20:15:53.747Z,18.80
2023-05-31T20:18:21.930Z,18.70
2023-05-31T20:20:48.755Z,18.60
2023-05-31T20:23:15.665Z,18.50
2023-05-31T20:25:42.562Z,18.40
2023-05-31T20:28:09.562Z,18.20
2023-05-31T20:30:36.456Z,18.10
2023-05-31T20:33:03.402Z,18.00
2023-05-31T20:35:30.461Z,17.90
2023-05-31T20:37:57.292Z,17.80
2023-05-31T20:40:27.248Z,17.70
2023-05-31T20:42:55.814Z,17.60
2023-05-31T20:45:23.564Z,17.50
2023-05-31T20:47:50.834Z,17.40
2023-05-31T20:50:18.704Z,17.40
2023-05-31T20:52:45.693Z,17.30
2023-05-31T20:55:12.764Z,17.20
2023-05-31T20:57:40.009Z,17.20
2023-05-31T21:00:08.417Z,17.10
2023-05-31T21:02:35.320Z,17.10
2023-05-31T21:05:02.336Z,17.00
2023-05-31T21:07:29.240Z,17.00
2023-05-31T21:09:56.182Z,16.90
2023-05-31T21:12:23.488Z,16.80
2023-05-31T21:14:50.529Z,16.70
2023-05-31T21:17:17.454Z,16.50
2023-05-31T21:19:44.333Z,16.50
2023-05-31T21:22:11.172Z,16.30
2023-05-31T21:24:38.086Z,16.20
2023-05-31T21:27:05.457Z,16.20
2023-05-31T21:29:32.301Z,16.10
2023-05-31T21:31:59.230Z,16.00
2023-05-31T21:34:26.086Z,15.90
2023-05-31T21:36:52.938Z,15.90
2023-05-31T21:39:19.982Z,15.80
2023-05-31T21:41:46.825Z,15.80
2023-05-31T21:44:13.733Z,15.70
2023-05-31T21:46:40.651Z,15.70
2023-05-31T21:49:07.820Z,15.60
2023-05-31T21:51:35.025Z,15.60
2023-05-31T21:54:04.009Z,15.50
2023-05-31T21:56:34.641Z,15.50
2023-05-31T21:59:01.533Z,15.40
2023-05-31T22:01:28.377Z,15.30
2023-05-31T22:03:55.792Z,15.20
2023-05-31T22:06:23.292Z,15.20
2023-05-31T22:08:50.396Z,15.20
2023-05-31T22:11:20.449Z,15.20
2023-05-31T22:13:50.585Z,15.20
2023-05-31T22:16:21.773Z,15.20
2023-05-31T22:18:52.803Z,15.20
2023-05-31T22:21:22.318Z,15.10
2023-05-31T22:23:51.698Z,15.00
2023-05-31T22:26:22.578Z,15.00
2023-05-31T22:28:51.229Z,14.90
2023-05-31T22:31:19.233Z,14.90
2023-05-31T22:33:49.704Z,14.80
2023-05-31T22:36:17.043Z,14.80
2023-05-31T22:38:44.046Z,14.80
2023-05-31T22:41:11.020Z,14.80
2023-05-31T22:43:37.902Z,14.70
2023-05-31T22:46:04.830Z,14.70
2023-05-31T22:48:33.952Z,14.70
2023-05-31T22:51:02.251Z,14.60
2023-05-31T22:53:29.623Z,14.60
2023-05-31T22:55:56.435Z,14.50
2023-05-31T22:58:23.528Z,14.50
2023-05-31T23:00:50.484Z,14.50
2023-05-31T23:03:17.460Z,14.30
2023-05-31T23:05:46.425Z,14.20
2023-05-31T23:08:13.485Z,14.20
2023-05-31T23:10:41.444Z,14.10
2023-05-31T23:13:10.920Z,13.90
2023-05-31T23:15:38.364Z,13.90
2023-05-31T23:18:08.431Z,13.80
2023-05-31T23:20:39.345Z,13.70
2023-05-31T23:23:07.673Z,13.70
2023-05-31T23:25:35.166Z,13.70
2023-05-31T23:28:02.804Z,13.60
2023-05-31T23:30:29.678Z,13.60
2023-05-31T23:32:56.680Z,13.60
2023-05-31T23:35:23.603Z,13.60
2023-05-31T23:37:52.372Z,13.60
2023-05-31T23:40:19.403Z,13.50
2023-05-31T23:42:46.700Z,13.50
2023-05-31T23:45:13.663Z,13.60
2023-05-31T23:47:40.971Z,13.50
2023-05-31T23:50:09.726Z,13.50
2023-05-31T23:52:37.163Z,13.20
2023-05-31T23:55:05.295Z,13.20
2023-05-31T23:57:32.402Z,13.30
2023-05-31T23:59:59.422Z,13.20
